sensor_id;sensor_type;location;lat;lon;timestamp;temperature;humidity
262;DHT22;114;48.260;10.988;2023-05-07T00:01:39;10.70;99.90
262;DHT22;114;48.260;10.988;2023-05-07T00:04:05;10.70;99.90
262;DHT22;114;48.260;10.988;2023-05-07T00:06:32;10.70;99.90
262;DHT22;114;48.260;10.988;2023-05-07T00:08:58;10.70;99.90
262;DHT22;114;48.260;10.988;2023-05-07T00:11:24;10.70;99.90
262;DHT22;114;48.260;10.988;2023-05-07T00:13:51;10.70;99.90
262;DHT22;114;48.260;10.988;2023-05-07T00:16:16;10.70;99.90
262;DHT22;114;48.260;10.988;2023-05-07T00:18:42;10.70;99.90
262;DHT22;114;48.260;10.988;2023-05-07T00:21:08;10.60;99.90
262;DHT22;114;48.260;10.988;2023-05-07T00:23:34;10.70;99.90
262;DHT22;114;48.260;10.988;2023-05-07T00:25:59;10.70;99.90
262;DHT22;114;48.260;10.988;2023-05-07T00:28:25;10.60;99.90
262;DHT22;114;48.260;10.988;2023-05-07T00:30:50;10.60;99.90
262;DHT22;114;48.260;10.988;2023-05-07T00:33:16;10.60;99.90
262;DHT22;114;48.260;10.988;2023-05-07T00:35:42;10.70;99.90
262;DHT22;114;48.260;10.988;2023-05-07T00:38:08;10.70;99.90
262;DHT22;114;48.260;10.988;2023-05-07T00:40:34;10.70;99.90
262;DHT22;114;48.260;10.988;2023-05-07T00:43:00;10.60;99.90
262;DHT22;114;48.260;10.988;2023-05-07T00:45:29;10.60;99.90
262;DHT22;114;48.260;10.988;2023-05-07T00:47:59;10.50;99.90
262;DHT22;114;48.260;10.988;2023-05-07T00:50:26;10.60;99.90
262;DHT22;114;48.260;10.988;2023-05-07T00:52:53;10.50;99.90
262;DHT22;114;48.260;10.988;2023-05-07T00:55:19;10.50;99.90
262;DHT22;114;48.260;10.988;2023-05-07T00:57:46;10.50;99.90
262;DHT22;114;48.260;10.988;2023-05-07T01:00:12;10.50;99.90
262;DHT22;114;48.260;10.988;2023-05-07T01:02:38;10.50;99.90
262;DHT22;114;48.260;10.988;2023-05-07T01:05:06;10.50;99.90
262;DHT22;114;48.260;10.988;2023-05-07T01:07:33;10.50;99.90
262;DHT22;114;48.260;10.988;2023-05-07T01:10:00;10.50;99.90
262;DHT22;114;48.260;10.988;2023-05-07T01:12:28;10.50;99.90
262;DHT22;114;48.260;10.988;2023-05-07T01:14:53;10.50;99.90
262;DHT22;114;48.260;10.988;2023-05-07T01:17:19;10.40;99.90
262;DHT22;114;48.260;10.988;2023-05-07T01:19:45;10.40;99.90
262;DHT22;114;48.260;10.988;2023-05-07T01:22:15;10.40;99.90
262;DHT22;114;48.260;10.988;2023-05-07T01:24:42;10.40;99.90
262;DHT22;114;48.260;10.988;2023-05-07T01:27:08;10.40;99.90
262;DHT22;114;48.260;10.988;2023-05-07T01:29:34;10.40;99.90
262;DHT22;114;48.260;10.988;2023-05-07T01:32:01;10.40;99.90
262;DHT22;114;48.260;10.988;2023-05-07T01:34:30;10.40;99.90
262;DHT22;114;48.260;10.988;2023-05-07T01:36:56;10.40;99.90
262;DHT22;114;48.260;10.988;2023-05-07T01:39:29;10.40;99.90
262;DHT22;114;48.260;10.988;2023-05-07T01:41:55;10.40;99.90
262;DHT22;114;48.260;10.988;2023-05-07T01:44:22;10.40;99.90
262;DHT22;114;48.260;10.988;2023-05-07T01:46:48;10.40;99.90
262;DHT22;114;48.260;10.988;2023-05-07T01:49:15;10.40;99.90
262;DHT22;114;48.260;10.988;2023-05-07T01:51:41;10.30;99.90
262;DHT22;114;48.260;10.988;2023-05-07T01:54:07;10.30;99.90
262;DHT22;114;48.260;10.988;2023-05-07T01:56:33;10.20;99.90
262;DHT22;114;48.260;10.988;2023-05-07T01:58:59;10.20;99.90
262;DHT22;114;48.260;10.988;2023-05-07T02:01:25;10.10;99.90
262;DHT22;114;48.260;10.988;2023-05-07T02:03:51;10.10;99.90
262;DHT22;114;48.260;10.988;2023-05-07T02:06:17;10.10;99.90
262;DHT22;114;48.260;10.988;2023-05-07T02:08:43;10.10;99.90
262;DHT22;114;48.260;10.988;2023-05-07T02:11:08;10.10;99.90
262;DHT22;114;48.260;10.988;2023-05-07T02:13:34;10.10;99.90
262;DHT22;114;48.260;10.988;2023-05-07T02:16:00;10.10;99.90
262;DHT22;114;48.260;10.988;2023-05-07T02:18:26;10.20;99.90
262;DHT22;114;48.260;10.988;2023-05-07T02:20:52;10.20;99.90
262;DHT22;114;48.260;10.988;2023-05-07T02:23:18;10.20;99.90
262;DHT22;114;48.260;10.988;2023-05-07T02:25:43;10.20;99.90
262;DHT22;114;48.260;10.988;2023-05-07T02:28:09;10.20;99.90
262;DHT22;114;48.260;10.988;2023-05-07T02:30:37;10.20;99.90
262;DHT22;114;48.260;10.988;2023-05-07T02:33:03;10.10;99.90
262;DHT22;114;48.260;10.988;2023-05-07T02:35:28;10.10;99.90
262;DHT22;114;48.260;10.988;2023-05-07T02:37:54;10.10;99.90
262;DHT22;114;48.260;10.988;2023-05-07T02:40:20;10.10;99.90
262;DHT22;114;48.260;10.988;2023-05-07T02:42:45;10.10;99.90
262;DHT22;114;48.260;10.988;2023-05-07T02:45:11;10.10;99.90
262;DHT22;114;48.260;10.988;2023-05-07T02:47:37;10.10;99.90
262;DHT22;114;48.260;10.988;2023-05-07T02:50:03;10.00;99.90
262;DHT22;114;48.260;10.988;2023-05-07T02:52:29;10.00;99.90
262;DHT22;114;48.260;10.988;2023-05-07T02:54:54;10.00;99.90
262;DHT22;114;48.260;10.988;2023-05-07T02:57:20;10.10;99.90
262;DHT22;114;48.260;10.988;2023-05-07T02:59:46;10.10;99.90
262;DHT22;114;48.260;10.988;2023-05-07T03:02:11;10.00;99.90
262;DHT22;114;48.260;10.988;2023-05-07T03:04:38;10.00;99.90
262;DHT22;114;48.260;10.988;2023-05-07T03:07:04;10.00;99.90
262;DHT22;114;48.260;10.988;2023-05-07T03:09:29;9.90;99.90
262;DHT22;114;48.260;10.988;2023-05-07T03:11:56;9.90;99.90
262;DHT22;114;48.260;10.988;2023-05-07T03:14:22;9.90;99.90
262;DHT22;114;48.260;10.988;2023-05-07T03:16:49;9.90;99.90
262;DHT22;114;48.260;10.988;2023-05-07T03:19:15;9.80;99.90
262;DHT22;114;48.260;10.988;2023-05-07T03:21:41;9.80;99.90
262;DHT22;114;48.260;10.988;2023-05-07T03:24:06;9.80;99.90
262;DHT22;114;48.260;10.988;2023-05-07T03:26:32;9.70;99.90
262;DHT22;114;48.260;10.988;2023-05-07T03:28:58;9.70;99.90
262;DHT22;114;48.260;10.988;2023-05-07T03:31:23;9.70;99.90
262;DHT22;114;48.260;10.988;2023-05-07T03:33:54;9.60;99.90
262;DHT22;114;48.260;10.988;2023-05-07T03:36:21;9.60;99.90
262;DHT22;114;48.260;10.988;2023-05-07T03:38:47;9.60;99.90
262;DHT22;114;48.260;10.988;2023-05-07T03:41:13;9.60;99.90
262;DHT22;114;48.260;10.988;2023-05-07T03:43:39;9.60;99.90
262;DHT22;114;48.260;10.988;2023-05-07T03:46:05;9.60;99.90
262;DHT22;114;48.260;10.988;2023-05-07T03:48:30;9.60;99.90
262;DHT22;114;48.260;10.988;2023-05-07T03:50:57;9.60;99.90
262;DHT22;114;48.260;10.988;2023-05-07T03:53:23;9.50;99.90
262;DHT22;114;48.260;10.988;2023-05-07T03:55:49;9.60;99.90
262;DHT22;114;48.260;10.988;2023-05-07T03:58:15;9.60;99.90
262;DHT22;114;48.260;10.988;2023-05-07T04:00:41;9.60;99.90
262;DHT22;114;48.260;10.988;2023-05-07T04:03:07;9.60;99.90
262;DHT22;114;48.260;10.988;2023-05-07T04:05:33;9.60;99.90
262;DHT22;114;48.260;10.988;2023-05-07T04:07:59;9.60;99.90
262;DHT22;114;48.260;10.988;2023-05-07T04:10:25;9.60;99.90
262;DHT22;114;48.260;10.988;2023-05-07T04:12:50;9.60;99.90
262;DHT22;114;48.260;10.988;2023-05-07T04:15:16;9.60;99.90
262;DHT22;114;48.260;10.988;2023-05-07T04:17:42;9.60;99.90
262;DHT22;114;48.260;10.988;2023-05-07T04:20:14;9.60;99.90
262;DHT22;114;48.260;10.988;2023-05-07T04:22:40;9.60;99.90
262;DHT22;114;48.260;10.988;2023-05-07T04:25:07;9.60;99.90
262;DHT22;114;48.260;10.988;2023-05-07T04:27:34;9.60;99.90
262;DHT22;114;48.260;10.988;2023-05-07T04:30:01;9.60;99.90
262;DHT22;114;48.260;10.988;2023-05-07T04:32:28;9.60;99.90
262;DHT22;114;48.260;10.988;2023-05-07T04:34:55;9.70;99.90
262;DHT22;114;48.260;10.988;2023-05-07T04:37:21;9.70;99.90
262;DHT22;114;48.260;10.988;2023-05-07T04:39:47;9.70;99.90
262;DHT22;114;48.260;10.988;2023-05-07T04:42:16;9.80;99.90
262;DHT22;114;48.260;10.988;2023-05-07T04:44:43;9.90;99.90
262;DHT22;114;48.260;10.988;2023-05-07T04:47:08;9.90;99.90
262;DHT22;114;48.260;10.988;2023-05-07T04:49:35;10.00;99.90
262;DHT22;114;48.260;10.988;2023-05-07T04:52:01;10.10;99.90
262;DHT22;114;48.260;10.988;2023-05-07T04:54:26;10.20;99.90
262;DHT22;114;48.260;10.988;2023-05-07T04:56:52;10.30;99.90
262;DHT22;114;48.260;10.988;2023-05-07T04:59:17;10.50;99.90
262;DHT22;114;48.260;10.988;2023-05-07T05:01:43;10.60;99.90
262;DHT22;114;48.260;10.988;2023-05-07T05:04:09;10.70;99.90
262;DHT22;114;48.260;10.988;2023-05-07T05:06:35;10.90;99.90
262;DHT22;114;48.260;10.988;2023-05-07T05:09:01;11.00;99.90
262;DHT22;114;48.260;10.988;2023-05-07T05:11:26;11.10;99.90
262;DHT22;114;48.260;10.988;2023-05-07T05:13:52;11.20;99.90
262;DHT22;114;48.260;10.988;2023-05-07T05:16:18;11.30;99.00
262;DHT22;114;48.260;10.988;2023-05-07T05:18:43;11.40;98.40
262;DHT22;114;48.260;10.988;2023-05-07T05:21:09;11.50;96.80
262;DHT22;114;48.260;10.988;2023-05-07T05:23:35;11.60;95.30
262;DHT22;114;48.260;10.988;2023-05-07T05:26:00;11.80;94.10
262;DHT22;114;48.260;10.988;2023-05-07T05:28:26;11.80;92.30
262;DHT22;114;48.260;10.988;2023-05-07T05:30:53;12.00;91.90
262;DHT22;114;48.260;10.988;2023-05-07T05:33:19;12.10;90.70
262;DHT22;114;48.260;10.988;2023-05-07T05:35:45;12.30;90.80
262;DHT22;114;48.260;10.988;2023-05-07T05:38:10;12.40;88.00
262;DHT22;114;48.260;10.988;2023-05-07T05:40:36;12.60;86.70
262;DHT22;114;48.260;10.988;2023-05-07T05:43:02;12.70;84.70
262;DHT22;114;48.260;10.988;2023-05-07T05:45:27;13.00;82.60
262;DHT22;114;48.260;10.988;2023-05-07T05:47:53;13.20;81.40
262;DHT22;114;48.260;10.988;2023-05-07T05:50:21;13.40;78.50
262;DHT22;114;48.260;10.988;2023-05-07T05:52:46;13.50;70.60
262;DHT22;114;48.260;10.988;2023-05-07T05:55:13;13.60;65.70
262;DHT22;114;48.260;10.988;2023-05-07T05:57:38;13.70;62.00
262;DHT22;114;48.260;10.988;2023-05-07T06:00:05;13.80;62.70
262;DHT22;114;48.260;10.988;2023-05-07T06:02:31;13.90;61.20
262;DHT22;114;48.260;10.988;2023-05-07T06:04:57;14.10;59.40
262;DHT22;114;48.260;10.988;2023-05-07T06:07:23;14.30;58.10
262;DHT22;114;48.260;10.988;2023-05-07T06:09:48;14.40;56.20
262;DHT22;114;48.260;10.988;2023-05-07T06:12:14;14.70;53.80
262;DHT22;114;48.260;10.988;2023-05-07T06:14:40;14.90;48.90
262;DHT22;114;48.260;10.988;2023-05-07T06:17:07;15.20;45.70
262;DHT22;114;48.260;10.988;2023-05-07T06:19:33;15.40;38.10
262;DHT22;114;48.260;10.988;2023-05-07T06:21:59;15.60;36.70
262;DHT22;114;48.260;10.988;2023-05-07T06:24:26;15.70;35.40
262;DHT22;114;48.260;10.988;2023-05-07T06:26:52;15.90;32.50
262;DHT22;114;48.260;10.988;2023-05-07T06:29:18;16.10;33.00
262;DHT22;114;48.260;10.988;2023-05-07T06:31:43;16.30;30.60
262;DHT22;114;48.260;10.988;2023-05-07T06:34:10;16.60;25.40
262;DHT22;114;48.260;10.988;2023-05-07T06:36:42;16.70;23.90
262;DHT22;114;48.260;10.988;2023-05-07T06:39:08;16.80;22.10
262;DHT22;114;48.260;10.988;2023-05-07T06:41:33;16.80;20.80
262;DHT22;114;48.260;10.988;2023-05-07T06:44:03;16.90;21.40
262;DHT22;114;48.260;10.988;2023-05-07T06:46:30;16.90;20.50
262;DHT22;114;48.260;10.988;2023-05-07T06:48:56;17.10;20.30
262;DHT22;114;48.260;10.988;2023-05-07T06:51:22;17.10;20.00
262;DHT22;114;48.260;10.988;2023-05-07T06:53:48;17.20;20.40
262;DHT22;114;48.260;10.988;2023-05-07T06:56:14;17.50;18.30
262;DHT22;114;48.260;10.988;2023-05-07T06:58:40;17.60;18.10
262;DHT22;114;48.260;10.988;2023-05-07T07:01:05;17.70;15.60
262;DHT22;114;48.260;10.988;2023-05-07T07:03:31;18.00;11.40
262;DHT22;114;48.260;10.988;2023-05-07T07:05:57;18.00;10.20
262;DHT22;114;48.260;10.988;2023-05-07T07:08:22;18.10;8.40
262;DHT22;114;48.260;10.988;2023-05-07T07:10:48;18.20;6.60
262;DHT22;114;48.260;10.988;2023-05-07T07:13:14;18.40;1.00
262;DHT22;114;48.260;10.988;2023-05-07T07:15:40;18.50;1.00
262;DHT22;114;48.260;10.988;2023-05-07T07:18:06;18.70;1.00
262;DHT22;114;48.260;10.988;2023-05-07T07:20:32;18.80;1.00
262;DHT22;114;48.260;10.988;2023-05-07T07:22:58;18.80;1.00
262;DHT22;114;48.260;10.988;2023-05-07T07:25:25;18.90;1.00
262;DHT22;114;48.260;10.988;2023-05-07T07:27:50;19.10;1.00
262;DHT22;114;48.260;10.988;2023-05-07T07:30:16;19.20;1.00
262;DHT22;114;48.260;10.988;2023-05-07T07:32:42;19.20;1.00
262;DHT22;114;48.260;10.988;2023-05-07T07:35:08;19.50;1.00
262;DHT22;114;48.260;10.988;2023-05-07T07:37:34;19.60;1.00
262;DHT22;114;48.260;10.988;2023-05-07T07:40:00;19.80;1.00
262;DHT22;114;48.260;10.988;2023-05-07T07:42:26;19.80;1.00
262;DHT22;114;48.260;10.988;2023-05-07T07:44:52;19.70;1.00
262;DHT22;114;48.260;10.988;2023-05-07T07:47:18;19.80;1.00
262;DHT22;114;48.260;10.988;2023-05-07T07:49:43;19.90;1.00
262;DHT22;114;48.260;10.988;2023-05-07T07:52:09;20.10;1.00
262;DHT22;114;48.260;10.988;2023-05-07T07:54:35;20.10;1.00
262;DHT22;114;48.260;10.988;2023-05-07T07:57:01;20.20;1.00
262;DHT22;114;48.260;10.988;2023-05-07T07:59:27;20.10;1.00
262;DHT22;114;48.260;10.988;2023-05-07T08:01:52;20.20;1.00
262;DHT22;114;48.260;10.988;2023-05-07T08:04:21;20.10;1.00
262;DHT22;114;48.260;10.988;2023-05-07T08:06:47;19.90;1.00
262;DHT22;114;48.260;10.988;2023-05-07T08:09:12;19.80;1.00
262;DHT22;114;48.260;10.988;2023-05-07T08:11:38;19.80;1.00
262;DHT22;114;48.260;10.988;2023-05-07T08:14:05;20.20;1.00
262;DHT22;114;48.260;10.988;2023-05-07T08:16:30;20.30;1.00
262;DHT22;114;48.260;10.988;2023-05-07T08:18:56;20.40;1.00
262;DHT22;114;48.260;10.988;2023-05-07T08:21:22;20.50;1.00
262;DHT22;114;48.260;10.988;2023-05-07T08:23:48;20.50;1.00
262;DHT22;114;48.260;10.988;2023-05-07T08:26:14;20.50;1.00
262;DHT22;114;48.260;10.988;2023-05-07T08:28:40;20.60;1.00
262;DHT22;114;48.260;10.988;2023-05-07T08:31:05;20.70;1.00
262;DHT22;114;48.260;10.988;2023-05-07T08:33:31;20.50;1.00
262;DHT22;114;48.260;10.988;2023-05-07T08:35:57;20.50;1.00
262;DHT22;114;48.260;10.988;2023-05-07T08:38:22;20.70;1.00
262;DHT22;114;48.260;10.988;2023-05-07T08:40:48;20.70;1.00
262;DHT22;114;48.260;10.988;2023-05-07T08:43:14;21.00;1.00
262;DHT22;114;48.260;10.988;2023-05-07T08:45:40;21.20;1.00
262;DHT22;114;48.260;10.988;2023-05-07T08:48:15;21.00;1.00
262;DHT22;114;48.260;10.988;2023-05-07T08:50:41;20.90;1.00
262;DHT22;114;48.260;10.988;2023-05-07T08:53:07;20.90;1.00
262;DHT22;114;48.260;10.988;2023-05-07T08:55:32;21.10;1.00
262;DHT22;114;48.260;10.988;2023-05-07T08:57:59;21.00;1.00
262;DHT22;114;48.260;10.988;2023-05-07T09:00:25;21.20;1.00
262;DHT22;114;48.260;10.988;2023-05-07T09:02:51;21.40;1.00
262;DHT22;114;48.260;10.988;2023-05-07T09:05:17;21.30;1.00
262;DHT22;114;48.260;10.988;2023-05-07T09:07:44;21.30;1.00
262;DHT22;114;48.260;10.988;2023-05-07T09:10:10;21.50;1.00
262;DHT22;114;48.260;10.988;2023-05-07T09:12:35;21.60;1.00
262;DHT22;114;48.260;10.988;2023-05-07T09:15:01;21.70;1.00
262;DHT22;114;48.260;10.988;2023-05-07T09:17:28;21.70;1.00
262;DHT22;114;48.260;10.988;2023-05-07T09:19:54;21.50;1.00
262;DHT22;114;48.260;10.988;2023-05-07T09:22:20;21.60;1.00
262;DHT22;114;48.260;10.988;2023-05-07T09:24:49;21.70;1.00
262;DHT22;114;48.260;10.988;2023-05-07T09:27:15;22.00;1.00
262;DHT22;114;48.260;10.988;2023-05-07T09:29:41;22.20;1.00
262;DHT22;114;48.260;10.988;2023-05-07T09:32:08;22.50;1.00
262;DHT22;114;48.260;10.988;2023-05-07T09:34:35;22.50;1.00
262;DHT22;114;48.260;10.988;2023-05-07T09:37:05;22.60;1.00
262;DHT22;114;48.260;10.988;2023-05-07T09:39:44;22.70;1.00
262;DHT22;114;48.260;10.988;2023-05-07T09:42:11;22.80;1.00
262;DHT22;114;48.260;10.988;2023-05-07T09:44:37;22.70;1.00
262;DHT22;114;48.260;10.988;2023-05-07T09:47:07;22.50;1.00
262;DHT22;114;48.260;10.988;2023-05-07T09:49:39;22.60;1.00
262;DHT22;114;48.260;10.988;2023-05-07T09:52:07;22.60;1.00
262;DHT22;114;48.260;10.988;2023-05-07T09:54:36;22.90;1.00
262;DHT22;114;48.260;10.988;2023-05-07T09:57:04;22.80;1.00
262;DHT22;114;48.260;10.988;2023-05-07T09:59:32;22.90;1.00
262;DHT22;114;48.260;10.988;2023-05-07T10:01:59;22.60;1.00
262;DHT22;114;48.260;10.988;2023-05-07T10:04:28;22.40;1.00
262;DHT22;114;48.260;10.988;2023-05-07T10:06:54;22.70;1.00
262;DHT22;114;48.260;10.988;2023-05-07T10:09:21;22.90;1.00
262;DHT22;114;48.260;10.988;2023-05-07T10:11:48;23.10;1.00
262;DHT22;114;48.260;10.988;2023-05-07T10:14:14;23.20;1.00
262;DHT22;114;48.260;10.988;2023-05-07T10:16:41;23.80;1.00
262;DHT22;114;48.260;10.988;2023-05-07T10:19:07;23.70;1.00
262;DHT22;114;48.260;10.988;2023-05-07T10:21:37;23.50;1.00
262;DHT22;114;48.260;10.988;2023-05-07T10:24:09;23.20;1.00
262;DHT22;114;48.260;10.988;2023-05-07T10:26:42;23.10;1.00
262;DHT22;114;48.260;10.988;2023-05-07T10:29:18;23.30;1.00
262;DHT22;114;48.260;10.988;2023-05-07T10:31:55;23.80;1.00
262;DHT22;114;48.260;10.988;2023-05-07T10:34:28;23.80;1.00
262;DHT22;114;48.260;10.988;2023-05-07T10:36:55;23.90;1.00
262;DHT22;114;48.260;10.988;2023-05-07T10:39:22;23.70;1.00
262;DHT22;114;48.260;10.988;2023-05-07T10:41:48;23.80;1.00
262;DHT22;114;48.260;10.988;2023-05-07T10:47:19;24.30;1.00
262;DHT22;114;48.260;10.988;2023-05-07T10:52:14;24.50;1.00
262;DHT22;114;48.260;10.988;2023-05-07T10:54:42;24.20;1.00
262;DHT22;114;48.260;10.988;2023-05-07T10:57:37;24.40;1.00
262;DHT22;114;48.260;10.988;2023-05-07T11:05:28;25.60;1.00
262;DHT22;114;48.260;10.988;2023-05-07T11:08:00;25.20;1.00
262;DHT22;114;48.260;10.988;2023-05-07T11:10:54;25.00;1.00
262;DHT22;114;48.260;10.988;2023-05-07T11:13:43;24.70;1.00
262;DHT22;114;48.260;10.988;2023-05-07T11:16:30;24.90;1.00
262;DHT22;114;48.260;10.988;2023-05-07T11:18:58;24.80;1.00
262;DHT22;114;48.260;10.988;2023-05-07T11:21:40;24.50;1.00
262;DHT22;114;48.260;10.988;2023-05-07T11:24:08;24.60;1.00
262;DHT22;114;48.260;10.988;2023-05-07T11:26:47;24.70;1.00
262;DHT22;114;48.260;10.988;2023-05-07T11:29:22;24.70;1.00
262;DHT22;114;48.260;10.988;2023-05-07T11:31:49;24.60;1.00
262;DHT22;114;48.260;10.988;2023-05-07T11:34:24;24.30;1.00
262;DHT22;114;48.260;10.988;2023-05-07T11:36:50;24.50;1.00
262;DHT22;114;48.260;10.988;2023-05-07T11:41:52;24.90;1.00
262;DHT22;114;48.260;10.988;2023-05-07T11:44:18;24.70;1.00
262;DHT22;114;48.260;10.988;2023-05-07T11:46:44;24.80;1.00
262;DHT22;114;48.260;10.988;2023-05-07T11:49:10;25.70;1.00
262;DHT22;114;48.260;10.988;2023-05-07T11:51:36;26.20;1.00
262;DHT22;114;48.260;10.988;2023-05-07T11:54:03;26.20;1.00
262;DHT22;114;48.260;10.988;2023-05-07T11:56:33;25.70;1.00
262;DHT22;114;48.260;10.988;2023-05-07T11:58:59;25.80;1.00
262;DHT22;114;48.260;10.988;2023-05-07T12:01:25;26.30;1.00
262;DHT22;114;48.260;10.988;2023-05-07T12:03:50;26.30;1.00
262;DHT22;114;48.260;10.988;2023-05-07T12:06:16;26.40;1.00
262;DHT22;114;48.260;10.988;2023-05-07T12:08:43;27.00;1.00
262;DHT22;114;48.260;10.988;2023-05-07T12:11:14;27.10;1.00
262;DHT22;114;48.260;10.988;2023-05-07T12:13:41;26.90;1.00
262;DHT22;114;48.260;10.988;2023-05-07T12:16:07;26.80;1.00
262;DHT22;114;48.260;10.988;2023-05-07T12:18:34;27.10;1.00
262;DHT22;114;48.260;10.988;2023-05-07T12:21:01;26.60;1.00
262;DHT22;114;48.260;10.988;2023-05-07T12:23:28;26.40;1.00
262;DHT22;114;48.260;10.988;2023-05-07T12:25:54;26.30;1.00
262;DHT22;114;48.260;10.988;2023-05-07T12:28:19;26.20;1.00
262;DHT22;114;48.260;10.988;2023-05-07T12:30:47;26.30;1.00
262;DHT22;114;48.260;10.988;2023-05-07T12:33:17;26.10;1.00
262;DHT22;114;48.260;10.988;2023-05-07T12:35:43;26.10;1.00
262;DHT22;114;48.260;10.988;2023-05-07T12:38:11;25.70;1.00
262;DHT22;114;48.260;10.988;2023-05-07T12:40:41;25.70;1.00
262;DHT22;114;48.260;10.988;2023-05-07T12:43:14;25.70;1.00
262;DHT22;114;48.260;10.988;2023-05-07T12:45:41;25.80;1.00
262;DHT22;114;48.260;10.988;2023-05-07T12:48:09;25.20;1.00
262;DHT22;114;48.260;10.988;2023-05-07T12:50:35;25.30;1.00
262;DHT22;114;48.260;10.988;2023-05-07T12:53:05;25.00;1.00
262;DHT22;114;48.260;10.988;2023-05-07T12:55:32;25.10;1.00
262;DHT22;114;48.260;10.988;2023-05-07T12:58:01;25.00;1.00
262;DHT22;114;48.260;10.988;2023-05-07T13:00:37;25.10;1.00
262;DHT22;114;48.260;10.988;2023-05-07T13:03:05;25.40;1.00
262;DHT22;114;48.260;10.988;2023-05-07T13:05:31;26.10;1.00
262;DHT22;114;48.260;10.988;2023-05-07T13:07:57;26.30;1.00
262;DHT22;114;48.260;10.988;2023-05-07T13:10:24;26.50;1.00
262;DHT22;114;48.260;10.988;2023-05-07T13:12:50;26.30;1.00
262;DHT22;114;48.260;10.988;2023-05-07T13:15:17;25.90;1.00
262;DHT22;114;48.260;10.988;2023-05-07T13:17:43;25.30;1.00
262;DHT22;114;48.260;10.988;2023-05-07T13:20:12;25.30;1.00
262;DHT22;114;48.260;10.988;2023-05-07T13:22:41;26.20;1.00
262;DHT22;114;48.260;10.988;2023-05-07T13:25:07;26.70;1.00
262;DHT22;114;48.260;10.988;2023-05-07T13:27:33;27.00;1.00
262;DHT22;114;48.260;10.988;2023-05-07T13:30:03;26.80;1.00
262;DHT22;114;48.260;10.988;2023-05-07T13:32:29;26.00;1.00
262;DHT22;114;48.260;10.988;2023-05-07T13:34:55;24.80;1.00
262;DHT22;114;48.260;10.988;2023-05-07T13:37:21;24.10;1.00
262;DHT22;114;48.260;10.988;2023-05-07T13:39:46;24.20;1.00
262;DHT22;114;48.260;10.988;2023-05-07T13:42:12;24.30;1.00
262;DHT22;114;48.260;10.988;2023-05-07T13:44:38;24.00;1.00
262;DHT22;114;48.260;10.988;2023-05-07T13:47:03;24.10;1.00
262;DHT22;114;48.260;10.988;2023-05-07T13:49:30;24.00;1.00
262;DHT22;114;48.260;10.988;2023-05-07T13:51:56;24.30;1.00
262;DHT22;114;48.260;10.988;2023-05-07T13:54:22;24.60;1.00
262;DHT22;114;48.260;10.988;2023-05-07T13:56:47;24.80;1.00
262;DHT22;114;48.260;10.988;2023-05-07T13:59:13;24.40;1.00
262;DHT22;114;48.260;10.988;2023-05-07T14:01:40;24.60;1.00
262;DHT22;114;48.260;10.988;2023-05-07T14:04:05;24.30;1.00
262;DHT22;114;48.260;10.988;2023-05-07T14:06:31;24.30;1.00
262;DHT22;114;48.260;10.988;2023-05-07T14:08:57;24.00;1.00
262;DHT22;114;48.260;10.988;2023-05-07T14:11:23;24.40;1.00
262;DHT22;114;48.260;10.988;2023-05-07T14:13:49;24.90;1.00
262;DHT22;114;48.260;10.988;2023-05-07T14:16:14;25.20;1.00
262;DHT22;114;48.260;10.988;2023-05-07T14:18:40;25.30;1.00
262;DHT22;114;48.260;10.988;2023-05-07T14:21:06;25.30;1.00
262;DHT22;114;48.260;10.988;2023-05-07T14:23:32;25.40;1.00
262;DHT22;114;48.260;10.988;2023-05-07T14:25:58;25.20;1.00
262;DHT22;114;48.260;10.988;2023-05-07T14:28:24;25.10;1.00
262;DHT22;114;48.260;10.988;2023-05-07T14:30:49;24.90;1.00
262;DHT22;114;48.260;10.988;2023-05-07T14:33:15;24.80;1.00
262;DHT22;114;48.260;10.988;2023-05-07T14:35:41;24.50;1.00
262;DHT22;114;48.260;10.988;2023-05-07T14:38:10;24.50;1.00
262;DHT22;114;48.260;10.988;2023-05-07T14:40:36;24.30;1.00
262;DHT22;114;48.260;10.988;2023-05-07T14:43:01;24.20;1.00
262;DHT22;114;48.260;10.988;2023-05-07T14:45:27;24.10;1.00
262;DHT22;114;48.260;10.988;2023-05-07T14:47:53;24.10;1.00
262;DHT22;114;48.260;10.988;2023-05-07T14:50:19;24.00;1.00
262;DHT22;114;48.260;10.988;2023-05-07T14:52:44;23.90;1.00
262;DHT22;114;48.260;10.988;2023-05-07T14:55:11;23.80;1.00
262;DHT22;114;48.260;10.988;2023-05-07T14:57:37;23.60;1.00
262;DHT22;114;48.260;10.988;2023-05-07T15:00:06;23.60;1.00
262;DHT22;114;48.260;10.988;2023-05-07T15:02:32;23.20;1.00
262;DHT22;114;48.260;10.988;2023-05-07T15:04:59;23.40;1.00
262;DHT22;114;48.260;10.988;2023-05-07T15:07:24;23.30;1.00
262;DHT22;114;48.260;10.988;2023-05-07T15:09:50;23.10;1.00
262;DHT22;114;48.260;10.988;2023-05-07T15:12:16;23.40;1.00
262;DHT22;114;48.260;10.988;2023-05-07T15:14:42;23.40;1.00
262;DHT22;114;48.260;10.988;2023-05-07T15:17:08;23.10;1.00
262;DHT22;114;48.260;10.988;2023-05-07T15:19:33;23.20;1.00
262;DHT22;114;48.260;10.988;2023-05-07T15:22:00;23.00;1.00
262;DHT22;114;48.260;10.988;2023-05-07T15:24:29;22.80;1.00
262;DHT22;114;48.260;10.988;2023-05-07T15:26:55;22.70;1.00
262;DHT22;114;48.260;10.988;2023-05-07T15:29:22;22.60;1.00
262;DHT22;114;48.260;10.988;2023-05-07T15:31:48;22.50;1.00
262;DHT22;114;48.260;10.988;2023-05-07T15:34:13;22.20;1.00
262;DHT22;114;48.260;10.988;2023-05-07T15:36:42;22.00;1.00
262;DHT22;114;48.260;10.988;2023-05-07T15:39:08;22.10;1.00
262;DHT22;114;48.260;10.988;2023-05-07T15:41:35;22.20;1.00
262;DHT22;114;48.260;10.988;2023-05-07T15:44:02;22.20;1.00
262;DHT22;114;48.260;10.988;2023-05-07T15:46:29;22.00;1.00
262;DHT22;114;48.260;10.988;2023-05-07T15:48:55;22.00;1.00
262;DHT22;114;48.260;10.988;2023-05-07T15:51:21;22.10;1.00
262;DHT22;114;48.260;10.988;2023-05-07T15:53:48;22.00;1.00
262;DHT22;114;48.260;10.988;2023-05-07T15:56:17;21.80;1.00
262;DHT22;114;48.260;10.988;2023-05-07T15:58:43;21.70;1.00
262;DHT22;114;48.260;10.988;2023-05-07T16:01:08;21.60;1.00
262;DHT22;114;48.260;10.988;2023-05-07T16:03:34;21.30;1.00
262;DHT22;114;48.260;10.988;2023-05-07T16:06:00;21.30;1.00
262;DHT22;114;48.260;10.988;2023-05-07T16:08:26;21.40;1.00
262;DHT22;114;48.260;10.988;2023-05-07T16:10:52;21.30;1.00
262;DHT22;114;48.260;10.988;2023-05-07T16:13:18;21.00;1.00
262;DHT22;114;48.260;10.988;2023-05-07T16:15:55;21.00;1.00
262;DHT22;114;48.260;10.988;2023-05-07T16:18:24;21.00;1.00
262;DHT22;114;48.260;10.988;2023-05-07T16:20:50;20.90;1.00
262;DHT22;114;48.260;10.988;2023-05-07T16:23:15;20.80;1.00
262;DHT22;114;48.260;10.988;2023-05-07T16:25:41;20.80;1.00
262;DHT22;114;48.260;10.988;2023-05-07T16:28:07;20.70;1.00
262;DHT22;114;48.260;10.988;2023-05-07T16:30:33;20.60;1.00
262;DHT22;114;48.260;10.988;2023-05-07T16:32:59;20.50;1.00
262;DHT22;114;48.260;10.988;2023-05-07T16:35:24;20.40;1.00
262;DHT22;114;48.260;10.988;2023-05-07T16:37:50;20.40;1.00
262;DHT22;114;48.260;10.988;2023-05-07T16:40:17;20.40;1.00